Time;durP1;ratioP1;P1;durP2;ratioP2;P2;SDS_P1;SDS_P2;PMS_P1;PMS_P2;Temp;Humidity;BMP_temperature;BMP_pressure;BME280_temperature;BME280_humidity;BME280_pressure;Samples;Min_cycle;Max_cycle;Signal;HPM_P1;HPM_P2
2022/10/16 00:01:15;;;;;;;8.50;4.00;;;15.60;99.90;;;;;;4928834;29;20210;-75
2022/10/16 00:03:42;;;;;;;4.50;2.90;;;15.70;99.90;;;;;;4934317;29;20211;-74
2022/10/16 00:06:10;;;;;;;1.93;1.83;;;15.70;99.90;;;;;;4912792;29;20191;-76
2022/10/16 00:08:36;;;;;;;1.93;1.77;;;15.70;99.90;;;;;;4924001;29;20737;-76
2022/10/16 00:11:24;;;;;;;2.43;2.20;;;15.70;99.90;;;;;;4919459;29;20550;-74
2022/10/16 00:13:51;;;;;;;1.80;1.70;;;15.70;99.90;;;;;;4916308;29;20218;-75
2022/10/16 00:16:18;;;;;;;1.70;1.60;;;15.70;99.90;;;;;;4934594;29;20195;-76
2022/10/16 00:18:44;;;;;;;2.73;2.20;;;15.80;99.90;;;;;;4930336;29;20218;-77
2022/10/16 00:21:22;;;;;;;2.07;1.90;;;15.70;99.90;;;;;;4909523;29;20204;-77
2022/10/16 00:23:51;;;;;;;4.33;2.07;;;15.70;99.90;;;;;;4910257;29;20179;-76
2022/10/16 00:26:17;;;;;;;2.60;2.40;;;15.70;99.90;;;;;;4909834;29;20215;-75
2022/10/16 00:28:49;;;;;;;2.30;2.20;;;15.70;99.90;;;;;;4909715;29;20258;-77
2022/10/16 00:31:15;;;;;;;1.87;1.67;;;15.70;99.90;;;;;;4909424;29;20204;-76
2022/10/16 00:33:42;;;;;;;2.43;2.10;;;15.70;99.90;;;;;;4909490;29;20187;-77
2022/10/16 00:36:11;;;;;;;4.80;1.73;;;15.70;99.90;;;;;;4909914;29;20605;-77
2022/10/16 00:38:37;;;;;;;4.10;2.00;;;15.70;99.90;;;;;;4909590;29;20267;-75
2022/10/16 00:41:03;;;;;;;2.20;2.10;;;15.60;99.90;;;;;;4909525;29;20282;-75
2022/10/16 00:43:47;;;;;;;2.30;1.70;;;15.60;99.90;;;;;;4909270;29;20278;-75
2022/10/16 00:46:12;;;;;;;3.57;2.17;;;15.60;99.90;;;;;;4909435;29;20258;-75
2022/10/16 00:48:38;;;;;;;1.53;1.43;;;15.60;99.90;;;;;;4909145;29;20263;-74
2022/10/16 00:51:05;;;;;;;1.77;1.67;;;15.60;99.90;;;;;;4909421;29;20188;-74
2022/10/16 00:53:31;;;;;;;2.33;2.13;;;15.60;99.90;;;;;;4908741;29;20231;-74
2022/10/16 00:55:57;;;;;;;1.63;1.53;;;15.60;99.90;;;;;;4907288;29;20215;-75
2022/10/16 00:58:23;;;;;;;1.83;1.73;;;15.60;99.90;;;;;;4914203;29;20285;-76
2022/10/16 01:00:48;;;;;;;2.37;1.80;;;15.70;99.90;;;;;;4945366;29;20192;-75
2022/10/16 01:03:31;;;;;;;1.97;1.87;;;15.70;99.90;;;;;;4917576;28;20231;-75
2022/10/16 01:06:15;;;;;;;1.87;1.77;;;15.70;99.90;;;;;;4907224;29;20238;-75
2022/10/16 01:09:11;;;;;;;1.80;1.70;;;15.70;99.90;;;;;;4912636;29;20192;-75
2022/10/16 01:12:07;;;;;;;2.70;1.80;;;15.70;99.90;;;;;;4913471;29;20227;-75
2022/10/16 01:14:46;;;;;;;1.90;1.80;;;15.70;99.90;;;;;;4904214;29;20207;-75
2022/10/16 01:17:17;;;;;;;2.43;1.67;;;15.70;99.90;;;;;;4921890;29;20322;-75
2022/10/16 01:20:01;;;;;;;1.97;1.80;;;15.70;99.90;;;;;;4924230;28;20203;-77
2022/10/16 01:22:57;;;;;;;1.80;1.70;;;15.70;99.90;;;;;;4913487;29;20232;-75
2022/10/16 01:25:51;;;;;;;2.17;1.97;;;15.70;99.90;;;;;;4926391;29;20254;-75
2022/10/16 01:28:20;;;;;;;3.70;2.60;;;15.70;99.90;;;;;;4910858;29;20238;-75
2022/10/16 01:30:47;;;;;;;2.10;1.90;;;15.70;99.90;;;;;;4932043;29;20234;-75
2022/10/16 01:33:32;;;;;;;2.30;1.80;;;15.70;99.90;;;;;;4925880;29;20309;-75
2022/10/16 01:36:10;;;;;;;1.77;1.67;;;15.70;99.90;;;;;;4927712;29;20182;-74
2022/10/16 01:38:38;;;;;;;1.83;1.73;;;15.70;99.90;;;;;;4915504;29;20191;-74
2022/10/16 01:41:09;;;;;;;1.87;1.77;;;15.70;99.90;;;;;;4933778;29;20198;-74
2022/10/16 01:43:40;;;;;;;1.50;1.40;;;15.70;99.90;;;;;;4917176;29;20299;-75
2022/10/16 01:46:07;;;;;;;1.80;1.70;;;15.70;99.90;;;;;;4923400;29;20191;-74
2022/10/16 01:48:35;;;;;;;2.40;2.20;;;15.60;99.90;;;;;;4920947;29;20946;-74
2022/10/16 01:51:08;;;;;;;2.20;1.73;;;15.70;99.90;;;;;;4933058;29;20198;-73
2022/10/16 01:53:35;;;;;;;2.00;1.63;;;15.70;99.90;;;;;;4921278;29;20241;-74
2022/10/16 01:56:03;;;;;;;1.40;1.30;;;15.60;99.90;;;;;;4924983;29;20202;-73
2022/10/16 01:58:34;;;;;;;3.67;1.70;;;15.60;99.90;;;;;;4927364;29;20195;-74
2022/10/16 02:01:01;;;;;;;1.80;1.70;;;15.60;99.90;;;;;;4911918;29;20246;-73
2022/10/16 02:03:26;;;;;;;4.23;1.70;;;15.60;99.90;;;;;;4915402;29;20293;-74
2022/10/16 02:05:57;;;;;;;2.73;1.67;;;15.60;99.90;;;;;;4940349;29;20285;-75
2022/10/16 02:08:25;;;;;;;1.60;1.50;;;15.60;99.90;;;;;;4920700;28;20461;-75
2022/10/16 02:10:51;;;;;;;2.20;2.03;;;15.70;99.90;;;;;;4928350;29;20199;-75
2022/10/16 02:13:45;;;;;;;1.70;1.43;;;15.60;99.90;;;;;;4930165;29;20697;-75
2022/10/16 02:16:11;;;;;;;1.77;1.50;;;15.60;99.90;;;;;;4927272;28;20194;-75
2022/10/16 02:18:36;;;;;;;1.50;1.40;;;15.70;99.90;;;;;;4946330;28;20198;-76
2022/10/16 02:21:13;;;;;;;2.33;1.40;;;15.70;99.90;;;;;;4928205;29;20612;-75
2022/10/16 02:24:11;;;;;;;2.33;2.13;;;15.70;99.90;;;;;;4912081;29;20540;-75
2022/10/16 02:27:22;;;;;;;1.77;1.67;;;15.70;99.90;;;;;;4925204;29;20200;-75
2022/10/16 02:29:52;;;;;;;1.67;1.57;;;15.70;99.90;;;;;;4871061;29;20197;-76
2022/10/16 02:32:23;;;;;;;3.47;2.00;;;15.70;99.90;;;;;;4912473;29;20701;-75
2022/10/16 02:34:50;;;;;;;1.80;1.70;;;15.70;99.90;;;;;;4940315;28;20226;-75
2022/10/16 02:37:17;;;;;;;2.53;1.57;;;15.70;99.90;;;;;;4934813;29;20203;-76
2022/10/16 02:39:43;;;;;;;1.80;1.70;;;15.70;99.90;;;;;;4927318;29;20244;-76
2022/10/16 02:42:13;;;;;;;1.83;1.73;;;15.70;99.90;;;;;;4930695;29;20322;-75
2022/10/16 02:44:38;;;;;;;1.60;1.50;;;15.70;99.90;;;;;;4936281;29;20202;-76
2022/10/16 02:47:04;;;;;;;2.57;1.80;;;15.70;99.90;;;;;;4924513;29;20738;-75
2022/10/16 02:49:30;;;;;;;1.27;1.23;;;15.70;99.90;;;;;;4917219;29;20209;-75
2022/10/16 02:51:55;;;;;;;1.70;1.60;;;15.70;99.90;;;;;;4936180;29;20230;-75
2022/10/16 02:54:21;;;;;;;3.17;1.40;;;15.70;99.90;;;;;;4918346;29;20306;-76
2022/10/16 02:56:46;;;;;;;1.47;1.37;;;15.70;99.90;;;;;;4937654;29;20677;-76
2022/10/16 02:59:12;;;;;;;2.40;1.70;;;15.60;99.90;;;;;;4929272;29;20175;-76
2022/10/16 03:01:37;;;;;;;2.17;1.87;;;15.60;99.90;;;;;;4942077;29;20282;-76
2022/10/16 03:04:03;;;;;;;3.00;1.53;;;15.60;99.90;;;;;;4922784;29;20188;-76
2022/10/16 03:06:28;;;;;;;1.60;1.50;;;15.60;99.90;;;;;;4933524;29;20612;-75
2022/10/16 03:08:54;;;;;;;2.60;1.33;;;15.60;99.90;;;;;;4919923;29;20584;-77
2022/10/16 03:11:19;;;;;;;1.10;1.10;;;15.50;99.90;;;;;;4935877;28;20246;-75
2022/10/16 03:13:44;;;;;;;3.40;1.53;;;15.50;99.90;;;;;;4915093;29;20187;-76
2022/10/16 03:16:10;;;;;;;1.73;1.63;;;15.50;99.90;;;;;;4935538;29;20195;-77
2022/10/16 03:18:35;;;;;;;1.77;1.23;;;15.50;99.90;;;;;;4920019;29;20267;-75
2022/10/16 03:21:01;;;;;;;1.73;1.63;;;15.50;99.90;;;;;;4929405;29;20199;-74
2022/10/16 03:23:26;;;;;;;2.13;1.97;;;15.40;99.90;;;;;;4922175;29;20216;-75
2022/10/16 03:25:52;;;;;;;1.63;1.53;;;15.40;99.90;;;;;;4937456;29;20552;-77
2022/10/16 03:28:17;;;;;;;1.47;1.37;;;15.40;99.90;;;;;;4920439;29;20230;-76
2022/10/16 03:30:43;;;;;;;1.57;1.47;;;15.30;99.90;;;;;;4935358;29;20855;-75
2022/10/16 03:33:09;;;;;;;1.67;1.57;;;15.30;99.90;;;;;;4921575;29;20339;-75
2022/10/16 03:35:35;;;;;;;2.23;2.10;;;15.30;99.90;;;;;;4940211;29;20191;-74
2022/10/16 03:38:00;;;;;;;2.30;1.70;;;15.30;99.90;;;;;;4920085;29;20204;-75
2022/10/16 03:40:27;;;;;;;2.27;1.47;;;15.20;99.90;;;;;;4932931;29;20198;-75
2022/10/16 03:42:55;;;;;;;2.00;1.87;;;15.20;99.90;;;;;;4921999;29;20746;-78
2022/10/16 03:45:20;;;;;;;1.77;1.53;;;15.30;99.90;;;;;;4929877;29;20222;-78
2022/10/16 03:47:46;;;;;;;1.70;1.60;;;15.20;99.90;;;;;;4925047;29;20370;-78
2022/10/16 03:50:11;;;;;;;3.80;1.83;;;15.30;99.90;;;;;;4947218;29;20190;-78
2022/10/16 03:52:37;;;;;;;2.40;2.10;;;15.30;99.90;;;;;;4911680;28;20307;-78
2022/10/16 03:55:02;;;;;;;1.80;1.70;;;15.30;99.90;;;;;;4939588;29;20211;-76
2022/10/16 03:57:28;;;;;;;1.80;1.70;;;15.30;99.90;;;;;;4934341;29;20199;-77
2022/10/16 03:59:53;;;;;;;2.10;1.90;;;15.30;99.90;;;;;;4940420;29;20280;-78
2022/10/16 04:02:19;;;;;;;1.80;1.70;;;15.30;99.90;;;;;;4937829;28;20678;-78
2022/10/16 04:04:44;;;;;;;1.57;1.47;;;15.30;99.90;;;;;;4921683;29;20223;-77
2022/10/16 04:07:10;;;;;;;2.30;2.00;;;15.30;99.90;;;;;;4932441;29;20203;-75
2022/10/16 04:09:35;;;;;;;1.60;1.50;;;15.30;99.90;;;;;;4913357;29;20257;-75
2022/10/16 04:12:01;;;;;;;1.90;1.80;;;15.30;99.90;;;;;;4937017;29;20482;-66
2022/10/16 04:14:26;;;;;;;1.47;1.37;;;15.30;99.90;;;;;;4911610;29;20183;-64
2022/10/16 04:16:52;;;;;;;1.70;1.60;;;15.30;99.90;;;;;;4922984;29;20198;-66
2022/10/16 04:19:17;;;;;;;1.73;1.63;;;15.30;99.90;;;;;;4920412;28;20696;-65
2022/10/16 04:21:43;;;;;;;2.47;1.97;;;15.30;99.90;;;;;;4931308;28;20206;-65
2022/10/16 04:24:08;;;;;;;2.20;2.00;;;15.20;99.90;;;;;;4920881;29;20693;-67
2022/10/16 04:26:33;;;;;;;2.23;2.00;;;15.20;99.90;;;;;;4917748;29;20298;-66
2022/10/16 04:28:59;;;;;;;2.83;1.80;;;15.20;99.90;;;;;;4919732;29;20193;-66
2022/10/16 04:31:24;;;;;;;2.87;2.00;;;15.20;99.90;;;;;;4922538;29;20247;-67
2022/10/16 04:33:50;;;;;;;1.97;1.87;;;15.30;99.90;;;;;;4913903;29;20198;-67
2022/10/16 04:36:15;;;;;;;1.50;1.40;;;15.20;99.90;;;;;;4928115;29;20522;-68
2022/10/16 04:38:41;;;;;;;2.07;1.97;;;15.20;99.90;;;;;;4922116;29;20311;-67
2022/10/16 04:41:07;;;;;;;1.80;1.70;;;15.20;99.90;;;;;;4933901;29;20270;-66
2022/10/16 04:43:33;;;;;;;1.60;1.50;;;15.20;99.90;;;;;;4918028;29;20212;-66
2022/10/16 04:45:59;;;;;;;2.13;2.00;;;15.10;99.90;;;;;;4935604;29;20198;-67
2022/10/16 04:48:25;;;;;;;2.00;1.90;;;15.20;99.90;;;;;;4917605;29;20696;-66
2022/10/16 04:50:50;;;;;;;1.73;1.50;;;15.10;99.90;;;;;;4940271;29;20191;-66
2022/10/16 04:53:16;;;;;;;1.80;1.60;;;15.10;99.90;;;;;;4922464;29;20857;-67
2022/10/16 04:55:42;;;;;;;2.00;1.90;;;15.20;99.90;;;;;;4932941;29;20199;-67
2022/10/16 04:58:08;;;;;;;1.83;1.73;;;15.10;99.90;;;;;;4924037;29;20218;-67
2022/10/16 05:00:34;;;;;;;2.43;1.67;;;15.10;99.90;;;;;;4922329;29;20282;-66
2022/10/16 05:03:00;;;;;;;2.17;2.07;;;15.10;99.90;;;;;;4929389;29;20681;-66
2022/10/16 05:05:27;;;;;;;2.50;2.20;;;15.00;99.90;;;;;;4935627;29;20199;-67
2022/10/16 05:07:53;;;;;;;2.27;2.17;;;15.00;99.90;;;;;;4930774;29;20928;-68
2022/10/16 05:10:18;;;;;;;1.70;1.60;;;15.00;99.90;;;;;;4928034;28;20253;-68
2022/10/16 05:12:44;;;;;;;1.87;1.77;;;15.00;99.90;;;;;;4930806;29;20230;-67
2022/10/16 05:15:10;;;;;;;2.80;1.77;;;15.00;99.90;;;;;;4928927;29;20198;-66
2022/10/16 05:17:38;;;;;;;1.97;1.70;;;15.00;99.90;;;;;;4921559;29;20207;-66
2022/10/16 05:20:04;;;;;;;4.47;2.27;;;15.00;99.90;;;;;;4921904;29;20195;-67
2022/10/16 05:22:30;;;;;;;2.70;2.50;;;15.00;99.90;;;;;;4920186;29;20215;-66
2022/10/16 05:24:56;;;;;;;1.73;1.63;;;15.00;99.90;;;;;;4918600;29;20194;-66
2022/10/16 05:27:21;;;;;;;2.53;2.33;;;15.00;99.90;;;;;;4928318;28;20207;-67
2022/10/16 05:29:48;;;;;;;2.50;1.87;;;15.00;99.90;;;;;;4917971;28;20199;-66
2022/10/16 05:32:15;;;;;;;2.20;2.10;;;15.10;99.90;;;;;;4936003;29;20230;-66
2022/10/16 05:34:41;;;;;;;1.83;1.73;;;15.10;99.90;;;;;;4907536;29;20198;-65
2022/10/16 05:37:07;;;;;;;2.30;1.80;;;15.00;99.90;;;;;;4925977;29;20194;-66
2022/10/16 05:39:33;;;;;;;1.80;1.70;;;15.10;99.90;;;;;;4918367;29;20192;-65
2022/10/16 05:41:58;;;;;;;2.10;1.97;;;15.10;99.90;;;;;;4928593;29;20551;-67
2022/10/16 05:44:24;;;;;;;3.27;2.10;;;15.10;99.90;;;;;;4912898;29;20187;-65
2022/10/16 05:46:49;;;;;;;2.00;1.90;;;15.10;99.90;;;;;;4916314;29;20226;-66
2022/10/16 05:49:15;;;;;;;1.97;1.87;;;15.10;99.90;;;;;;4912383;29;20182;-67
2022/10/16 05:51:41;;;;;;;3.27;2.37;;;15.20;99.90;;;;;;4933106;29;20210;-65
2022/10/16 05:54:06;;;;;;;1.90;1.80;;;15.20;99.90;;;;;;4914273;28;20230;-66
2022/10/16 05:56:32;;;;;;;2.03;1.80;;;15.30;99.90;;;;;;4932450;29;20209;-65
2022/10/16 05:58:57;;;;;;;4.10;2.33;;;15.30;99.90;;;;;;4915718;29;20256;-65
2022/10/16 06:01:24;;;;;;;1.83;1.60;;;15.30;99.90;;;;;;4931095;29;20245;-65
2022/10/16 06:03:50;;;;;;;1.70;1.60;;;15.20;99.90;;;;;;4928672;28;20198;-66
2022/10/16 06:06:21;;;;;;;2.67;1.80;;;15.30;99.90;;;;;;4927933;29;20266;-63
2022/10/16 06:08:48;;;;;;;1.90;1.80;;;15.30;99.90;;;;;;4923582;29;20215;-63
2022/10/16 06:11:19;;;;;;;1.57;1.47;;;15.30;99.90;;;;;;4936408;29;20197;-64
2022/10/16 06:13:48;;;;;;;3.37;2.27;;;15.40;99.90;;;;;;4906967;29;20211;-64
2022/10/16 06:16:14;;;;;;;1.83;1.67;;;15.40;99.90;;;;;;4933209;29;20199;-64
2022/10/16 06:18:39;;;;;;;2.00;1.90;;;15.50;99.90;;;;;;4915646;29;20255;-65
2022/10/16 06:21:24;;;;;;;2.80;2.17;;;15.40;99.90;;;;;;4933039;29;20231;-65
2022/10/16 06:23:50;;;;;;;2.60;1.80;;;15.50;99.90;;;;;;4915840;29;20567;-66
2022/10/16 06:26:18;;;;;;;3.07;1.97;;;15.60;99.90;;;;;;4938091;29;20207;-65
2022/10/16 06:28:44;;;;;;;2.93;1.77;;;15.60;99.90;;;;;;4917731;29;20774;-65
2022/10/16 06:31:11;;;;;;;1.80;1.60;;;15.60;99.90;;;;;;4932840;29;20199;-64
2022/10/16 06:33:37;;;;;;;1.90;1.80;;;15.70;99.90;;;;;;4920273;29;20200;-64
2022/10/16 06:36:07;;;;;;;2.50;2.23;;;15.70;99.90;;;;;;4948104;29;20194;-64
2022/10/16 06:38:32;;;;;;;2.83;2.00;;;15.60;99.90;;;;;;4915949;28;20203;-63
2022/10/16 06:40:58;;;;;;;2.40;2.20;;;15.70;99.90;;;;;;4933524;29;20209;-63
2022/10/16 06:43:24;;;;;;;2.20;2.10;;;15.60;99.90;;;;;;4924020;29;20298;-63
2022/10/16 06:45:56;;;;;;;2.57;2.30;;;15.70;99.90;;;;;;4946756;29;20205;-62
2022/10/16 06:48:23;;;;;;;2.30;2.20;;;15.70;99.90;;;;;;4929405;29;20208;-63
2022/10/16 06:51:09;;;;;;;2.23;1.83;;;15.80;99.90;;;;;;4942301;29;20199;-63
2022/10/16 06:53:36;;;;;;;2.50;2.30;;;15.80;99.90;;;;;;4918495;29;20720;-64
2022/10/16 06:56:22;;;;;;;4.43;2.20;;;15.90;99.90;;;;;;4940987;29;20199;-65
2022/10/16 06:58:48;;;;;;;2.47;2.27;;;15.90;99.90;;;;;;4918948;29;20230;-64
2022/10/16 07:01:15;;;;;;;3.10;1.93;;;15.90;99.90;;;;;;4935553;29;20234;-64
2022/10/16 07:03:42;;;;;;;2.07;1.87;;;16.00;99.90;;;;;;4923101;28;20195;-63
2022/10/16 07:06:10;;;;;;;2.00;1.90;;;16.10;99.90;;;;;;4936346;29;20205;-63
2022/10/16 07:08:37;;;;;;;1.80;1.70;;;16.10;99.90;;;;;;4925777;29;20210;-64
2022/10/16 07:11:06;;;;;;;1.73;1.63;;;16.30;99.90;;;;;;4941048;29;20746;-65
2022/10/16 07:13:36;;;;;;;2.60;1.90;;;16.30;99.90;;;;;;4919173;28;20697;-65
2022/10/16 07:16:23;;;;;;;5.80;2.17;;;16.40;99.90;;;;;;4944979;28;20207;-66
2022/10/16 07:18:51;;;;;;;2.00;1.90;;;16.50;99.90;;;;;;4909138;29;20208;-67
2022/10/16 07:21:21;;;;;;;2.57;2.23;;;16.50;99.90;;;;;;4946219;28;20183;-66
2022/10/16 07:23:55;;;;;;;3.47;2.67;;;16.50;99.90;;;;;;4932161;29;20207;-67
2022/10/16 07:26:21;;;;;;;2.73;2.23;;;16.60;99.90;;;;;;4925962;29;20195;-66
2022/10/16 07:28:46;;;;;;;2.63;2.30;;;16.60;99.90;;;;;;4927589;29;20211;-66
2022/10/16 07:31:14;;;;;;;2.07;1.87;;;16.60;99.90;;;;;;4946049;29;20183;-66
2022/10/16 07:33:41;;;;;;;2.30;2.10;;;16.70;99.90;;;;;;4925935;29;20647;-66
2022/10/16 07:36:07;;;;;;;1.93;1.83;;;16.70;99.90;;;;;;4935556;29;20239;-64
2022/10/16 07:38:33;;;;;;;1.60;1.40;;;16.70;99.90;;;;;;4923056;29;20208;-66
2022/10/16 07:41:05;;;;;;;1.67;1.57;;;16.70;99.90;;;;;;4925020;28;20191;-64
2022/10/16 07:43:31;;;;;;;2.17;2.03;;;16.70;99.90;;;;;;4912583;29;20238;-66
2022/10/16 07:45:56;;;;;;;1.70;1.60;;;16.70;99.90;;;;;;4924171;29;20281;-64
2022/10/16 07:48:23;;;;;;;2.03;1.80;;;16.70;99.90;;;;;;4918317;29;20354;-65
2022/10/16 07:50:49;;;;;;;2.03;1.70;;;16.80;99.90;;;;;;4922512;29;20210;-64
2022/10/16 07:53:15;;;;;;;1.77;1.63;;;16.90;99.90;;;;;;4920665;29;20342;-71
2022/10/16 07:55:40;;;;;;;1.20;1.20;;;16.80;99.90;;;;;;4917261;29;20200;-71
2022/10/16 07:58:06;;;;;;;1.10;1.10;;;16.80;99.90;;;;;;4922729;29;20204;-68
2022/10/16 08:00:32;;;;;;;1.60;1.50;;;16.80;99.90;;;;;;4917151;29;20185;-69
2022/10/16 08:03:00;;;;;;;1.00;1.00;;;16.70;99.90;;;;;;4908997;29;20212;-72
2022/10/16 08:05:29;;;;;;;3.10;1.70;;;16.70;99.90;;;;;;4919010;29;20187;-70
2022/10/16 08:07:56;;;;;;;1.20;1.10;;;16.70;99.90;;;;;;4914439;29;20370;-71
2022/10/16 08:10:23;;;;;;;2.03;1.57;;;16.70;99.90;;;;;;4921785;29;20245;-73
2022/10/16 08:12:48;;;;;;;1.80;1.70;;;16.80;99.90;;;;;;4939201;29;20219;-69
2022/10/16 08:15:14;;;;;;;2.03;1.33;;;16.80;99.90;;;;;;4920552;28;20552;-78
2022/10/16 08:17:39;;;;;;;1.33;1.23;;;16.90;99.90;;;;;;4939760;28;20250;-78
2022/10/16 08:20:06;;;;;;;1.77;1.67;;;16.90;99.90;;;;;;4909615;29;20188;-72
2022/10/16 08:22:31;;;;;;;1.80;1.37;;;17.00;99.90;;;;;;4927703;29;20257;-71
2022/10/16 08:24:56;;;;;;;2.13;1.47;;;17.10;99.90;;;;;;4916100;29;20984;-73
2022/10/16 08:27:22;;;;;;;1.50;1.40;;;17.10;99.90;;;;;;4915331;29;20198;-72
2022/10/16 08:29:49;;;;;;;1.10;1.10;;;17.10;99.90;;;;;;4908294;29;20200;-70
2022/10/16 08:32:14;;;;;;;1.47;1.37;;;17.10;99.90;;;;;;4937354;29;20255;-73
2022/10/16 08:34:40;;;;;;;1.60;1.50;;;17.20;99.90;;;;;;4907790;29;20211;-73
2022/10/16 08:37:07;;;;;;;1.30;1.20;;;17.10;99.90;;;;;;4940951;29;20265;-72
2022/10/16 08:39:33;;;;;;;1.50;1.40;;;17.10;99.90;;;;;;4916769;28;20500;-73
2022/10/16 08:42:39;;;;;;;2.37;1.50;;;17.10;99.90;;;;;;4929190;29;20566;-73
2022/10/16 08:45:19;;;;;;;1.90;1.80;;;17.20;99.90;;;;;;4921096;28;20195;-73
2022/10/16 08:48:06;;;;;;;1.13;1.13;;;17.20;99.90;;;;;;4917776;29;20634;-72
2022/10/16 08:50:36;;;;;;;1.80;1.57;;;17.30;99.90;;;;;;4912930;29;20191;-73
2022/10/16 08:53:04;;;;;;;2.10;1.37;;;17.40;99.90;;;;;;4925595;28;20735;-76
2022/10/16 08:55:50;;;;;;;1.50;1.40;;;17.40;99.90;;;;;;4929820;29;20210;-73
2022/10/16 08:58:19;;;;;;;1.53;1.30;;;17.50;99.90;;;;;;4920081;29;20243;-74
2022/10/16 09:00:49;;;;;;;1.47;1.37;;;17.40;99.90;;;;;;4912572;29;20191;-72
2022/10/16 09:03:23;;;;;;;1.60;1.50;;;17.50;99.90;;;;;;4923146;28;20328;-72
2022/10/16 09:05:54;;;;;;;1.70;1.60;;;17.60;99.90;;;;;;4923622;29;20194;-71
2022/10/16 09:08:48;;;;;;;1.50;1.40;;;17.70;99.90;;;;;;4910016;29;20208;-73
2022/10/16 09:11:23;;;;;;;1.30;1.20;;;17.90;99.90;;;;;;4902576;29;20278;-72
2022/10/16 09:14:04;;;;;;;1.27;1.17;;;17.90;99.90;;;;;;4910481;29;20760;-73
2022/10/16 09:17:00;;;;;;;1.07;1.07;;;18.00;99.90;;;;;;4921253;29;20188;-71
2022/10/16 09:19:36;;;;;;;2.50;1.10;;;18.00;99.90;;;;;;4918974;29;20287;-72
2022/10/16 09:22:12;;;;;;;1.00;1.00;;;18.10;99.90;;;;;;4935603;28;20196;-72
2022/10/16 09:24:37;;;;;;;3.37;1.50;;;18.10;99.90;;;;;;4912744;29;20289;-72
2022/10/16 09:27:03;;;;;;;1.53;1.10;;;18.10;99.90;;;;;;4924358;29;20282;-72
2022/10/16 09:29:29;;;;;;;1.20;1.10;;;18.10;99.90;;;;;;4916861;29;20207;-72
2022/10/16 09:31:57;;;;;;;5.47;1.50;;;18.10;99.90;;;;;;4935383;29;20218;-72
2022/10/16 09:34:32;;;;;;;1.27;1.20;;;18.10;99.90;;;;;;4921631;29;20227;-82
2022/10/16 09:37:00;;;;;;;1.53;1.43;;;18.10;99.90;;;;;;4909045;29;20223;-72
2022/10/16 09:39:25;;;;;;;0.90;0.90;;;18.10;99.90;;;;;;4915759;29;20211;-73
2022/10/16 09:41:51;;;;;;;1.63;1.07;;;18.10;99.90;;;;;;4910935;29;20547;-72
2022/10/16 09:44:29;;;;;;;1.90;1.00;;;18.10;99.90;;;;;;4926136;29;20250;-71
2022/10/16 09:47:06;;;;;;;1.90;1.07;;;18.10;99.90;;;;;;4907446;29;20255;-71
2022/10/16 09:49:31;;;;;;;1.30;1.10;;;18.10;99.90;;;;;;4905935;29;20210;-72
2022/10/16 09:52:12;;;;;;;1.20;1.20;;;18.10;99.90;;;;;;4914396;29;20215;-70
2022/10/16 09:54:48;;;;;;;0.90;0.90;;;18.10;99.90;;;;;;4912760;29;20292;-72
2022/10/16 09:57:14;;;;;;;1.23;1.10;;;18.10;99.90;;;;;;4913596;29;20222;-73
2022/10/16 09:59:47;;;;;;;1.00;1.00;;;18.10;99.90;;;;;;4915587;29;20293;-70
2022/10/16 10:02:15;;;;;;;3.00;1.27;;;18.20;99.90;;;;;;4916566;29;20194;-71
2022/10/16 10:04:47;;;;;;;0.80;0.80;;;18.30;99.90;;;;;;4917689;28;20211;-73
2022/10/16 10:07:25;;;;;;;1.70;1.27;;;18.40;99.90;;;;;;4918655;29;20319;-72
2022/10/16 10:09:50;;;;;;;1.03;0.90;;;18.50;99.90;;;;;;4912859;29;20319;-71
2022/10/16 10:12:23;;;;;;;3.33;1.10;;;18.50;99.90;;;;;;4921615;29;20221;-71
2022/10/16 10:14:51;;;;;;;1.03;1.03;;;18.50;99.90;;;;;;4917057;29;20210;-71
2022/10/16 10:17:25;;;;;;;1.60;0.87;;;18.60;99.90;;;;;;4919212;28;20188;-72
2022/10/16 10:20:20;;;;;;;1.00;0.93;;;18.60;99.90;;;;;;4932081;29;20222;-87
2022/10/16 10:22:46;;;;;;;1.00;0.90;;;18.70;99.90;;;;;;4915266;28;20730;-72
2022/10/16 10:25:11;;;;;;;0.80;0.80;;;18.70;99.90;;;;;;4914727;29;20202;-71
2022/10/16 10:28:10;;;;;;;1.20;1.10;;;18.60;99.90;;;;;;4948185;29;20196;-72
2022/10/16 10:31:00;;;;;;;1.50;1.30;;;18.60;99.90;;;;;;4929686;29;20220;-71
2022/10/16 10:33:58;;;;;;;1.73;1.00;;;18.60;99.90;;;;;;4923284;29;20225;-71
2022/10/16 10:36:39;;;;;;;1.50;1.20;;;18.70;99.90;;;;;;4924331;29;20234;-71
2022/10/16 10:39:20;;;;;;;1.77;1.67;;;18.80;99.90;;;;;;4935576;29;20207;-71
2022/10/16 10:42:14;;;;;;;1.60;1.10;;;18.90;99.90;;;;;;4938845;29;20299;-72
2022/10/16 10:45:12;;;;;;;1.20;1.10;;;19.10;99.90;;;;;;4914245;29;20240;-69
2022/10/16 10:47:50;;;;;;;0.90;0.90;;;19.40;99.90;;;;;;4919794;29;20193;-70
2022/10/16 10:50:33;;;;;;;1.03;0.93;;;19.60;99.90;;;;;;4919277;29;20185;-71
2022/10/16 10:53:32;;;;;;;2.57;0.90;;;19.80;99.90;;;;;;4915964;29;20271;-69
2022/10/16 10:56:20;;;;;;;0.97;0.97;;;19.90;99.90;;;;;;4917832;29;20680;-71
2022/10/16 10:58:59;;;;;;;1.47;1.30;;;20.00;99.90;;;;;;4914526;29;20225;-71
2022/10/16 11:01:52;;;;;;;1.97;0.80;;;20.30;99.90;;;;;;4921008;29;20193;-70
2022/10/16 11:04:39;;;;;;;2.37;1.03;;;20.40;99.90;;;;;;4915431;29;20215;-70
2022/10/16 11:07:17;;;;;;;0.80;0.80;;;20.50;99.90;;;;;;4918281;29;20202;-83
2022/10/16 11:09:53;;;;;;;4.00;0.80;;;20.60;99.90;;;;;;4923699;29;20205;-75
2022/10/16 11:12:26;;;;;;;0.90;0.90;;;20.60;99.90;;;;;;4916275;29;20585;-75
2022/10/16 11:15:03;;;;;;;1.80;1.00;;;20.50;99.90;;;;;;4917243;29;20218;-75
2022/10/16 11:17:34;;;;;;;1.00;0.90;;;20.50;99.90;;;;;;4914449;29;20305;-75
2022/10/16 11:20:13;;;;;;;0.83;0.83;;;20.40;99.90;;;;;;4917149;29;20205;-84
2022/10/16 11:22:54;;;;;;;1.47;1.07;;;20.40;99.90;;;;;;4921149;28;20609;-75
2022/10/16 11:25:29;;;;;;;1.40;1.07;;;20.30;99.90;;;;;;4912458;29;20254;-77
2022/10/16 11:28:06;;;;;;;3.27;1.10;;;20.20;99.90;;;;;;4924988;29;20209;-82
2022/10/16 11:30:58;;;;;;;1.00;0.90;;;20.10;99.90;;;;;;4919625;29;20321;-75
2022/10/16 11:33:31;;;;;;;0.70;0.67;;;20.00;99.90;;;;;;4914452;29;20309;-78
2022/10/16 11:36:11;;;;;;;3.20;0.80;;;20.00;99.90;;;;;;4923029;29;20275;-79
2022/10/16 11:38:49;;;;;;;0.97;0.97;;;20.00;99.90;;;;;;4911053;29;20221;-77
2022/10/16 11:41:33;;;;;;;1.80;0.90;;;19.90;99.90;;;;;;4919495;29;20373;-84
2022/10/16 11:44:09;;;;;;;1.07;1.07;;;19.90;99.90;;;;;;4917130;29;20206;-82
2022/10/16 11:46:38;;;;;;;0.77;0.77;;;20.00;99.90;;;;;;4924553;29;20409;-83
2022/10/16 11:49:11;;;;;;;2.07;1.03;;;20.20;99.90;;;;;;4926810;29;20213;-88
2022/10/16 11:51:41;;;;;;;1.43;1.33;;;20.30;99.90;;;;;;4911452;29;20666;-88
2022/10/16 11:54:39;;;;;;;1.97;1.23;;;20.40;99.90;;;;;;4927342;29;20361;-87
2022/10/16 11:57:14;;;;;;;0.80;0.80;;;20.40;99.90;;;;;;4923612;29;20316;-84
2022/10/16 12:00:19;;;;;;;1.83;0.80;;;20.40;99.90;;;;;;4916007;29;20203;-80
2022/10/16 12:03:25;;;;;;;0.60;0.60;;;20.30;99.90;;;;;;4866313;29;20191;-88
2022/10/16 12:06:19;;;;;;;1.03;0.77;;;20.60;99.90;;;;;;4941411;29;20247;-82
2022/10/16 12:08:45;;;;;;;1.10;0.80;;;20.70;99.90;;;;;;4921504;29;20301;-85
2022/10/16 12:11:26;;;;;;;0.60;0.60;;;21.00;99.90;;;;;;4914149;29;20217;-82
2022/10/16 12:14:03;;;;;;;1.00;1.00;;;21.30;99.90;;;;;;4914364;29;20244;-82
2022/10/16 12:16:28;;;;;;;0.70;0.70;;;21.50;99.90;;;;;;4911081;29;20202;-82
2022/10/16 12:19:10;;;;;;;0.60;0.60;;;22.00;99.90;;;;;;4938449;29;20210;-83
2022/10/16 12:21:36;;;;;;;0.60;0.60;;;22.40;99.90;;;;;;4917599;29;20190;-82
2022/10/16 12:24:07;;;;;;;0.60;0.60;;;22.60;99.90;;;;;;4930558;29;20198;-81
2022/10/16 12:26:37;;;;;;;0.77;0.77;;;22.80;99.50;;;;;;4921842;29;20950;-81
2022/10/16 12:29:26;;;;;;;0.97;0.97;;;22.90;99.40;;;;;;4917700;29;20266;-84
2022/10/16 12:31:51;;;;;;;1.73;0.80;;;23.20;98.80;;;;;;4928898;29;20227;-82
2022/10/16 12:34:27;;;;;;;1.57;1.00;;;23.40;98.10;;;;;;4920638;29;20266;-81
2022/10/16 12:36:54;;;;;;;1.30;0.80;;;23.60;97.10;;;;;;4920293;29;20241;-82
2022/10/16 12:39:25;;;;;;;0.60;0.60;;;23.60;97.10;;;;;;4929674;29;20242;-81
2022/10/16 12:42:05;;;;;;;2.57;0.47;;;23.70;97.20;;;;;;4919502;29;20203;-81
2022/10/16 12:44:36;;;;;;;0.90;0.50;;;23.70;96.50;;;;;;4917520;29;20207;-81
2022/10/16 12:47:02;;;;;;;0.73;0.73;;;24.10;96.60;;;;;;4924527;29;20199;-73
2022/10/16 12:49:27;;;;;;;0.63;0.63;;;24.40;95.10;;;;;;4913959;28;20674;-70
2022/10/16 12:51:54;;;;;;;2.05;0.82;;;24.40;95.20;;;;;;4920043;29;20215;-73
2022/10/16 12:54:32;;;;;;;2.90;0.80;;;24.30;95.40;;;;;;4910740;29;20233;-71
2022/10/16 12:57:31;;;;;;;1.13;0.88;;;24.30;94.10;;;;;;4909908;29;20930;-72
2022/10/16 13:00:18;;;;;;;1.92;0.73;;;24.40;93.60;;;;;;4909165;28;20585;-71
2022/10/16 13:03:23;;;;;;;1.08;0.70;;;24.20;93.90;;;;;;4914379;29;20303;-72
2022/10/16 13:05:57;;;;;;;0.82;0.82;;;24.50;94.10;;;;;;4918017;29;20191;-71
2022/10/16 13:08:39;;;;;;;0.85;0.85;;;24.80;92.80;;;;;;4912850;29;20766;-73
2022/10/16 13:11:17;;;;;;;1.00;0.80;;;24.80;92.10;;;;;;4913801;29;20200;-72